sensor_id;sensor_type;location;lat;lon;timestamp;P1;durP1;ratioP1;P2;durP2;ratioP2
72785;SDS011;60902;53.876;10.674;2022-09-30T00:00:01;6.22;;;3.78;;
72785;SDS011;60902;53.876;10.674;2022-09-30T00:00:14;6.07;;;3.60;;
72785;SDS011;60902;53.876;10.674;2022-09-30T00:00:26;7.10;;;3.75;;
72785;SDS011;60902;53.876;10.674;2022-09-30T00:00:38;6.82;;;3.72;;
72785;SDS011;60902;53.876;10.674;2022-09-30T00:00:49;6.65;;;3.75;;
72785;SDS011;60902;53.876;10.674;2022-09-30T00:01:00;5.93;;;3.63;;
72785;SDS011;60902;53.876;10.674;2022-09-30T00:01:12;6.07;;;3.70;;
72785;SDS011;60902;53.876;10.674;2022-09-30T00:01:22;6.00;;;3.58;;
72785;SDS011;60902;53.876;10.674;2022-09-30T00:01:35;6.32;;;3.88;;
72785;SDS011;60902;53.876;10.674;2022-09-30T00:01:48;6.07;;;3.83;;
72785;SDS011;60902;53.876;10.674;2022-09-30T00:02:00;6.15;;;3.75;;
72785;SDS011;60902;53.876;10.674;2022-09-30T00:02:11;6.00;;;3.60;;
72785;SDS011;60902;53.876;10.674;2022-09-30T00:02:23;6.03;;;3.53;;
72785;SDS011;60902;53.876;10.674;2022-09-30T00:02:34;6.10;;;3.60;;
72785;SDS011;60902;53.876;10.674;2022-09-30T00:02:45;6.18;;;3.80;;
72785;SDS011;60902;53.876;10.674;2022-09-30T00:02:56;6.15;;;3.92;;
72785;SDS011;60902;53.876;10.674;2022-09-30T00:03:07;6.38;;;4.00;;
72785;SDS011;60902;53.876;10.674;2022-09-30T00:03:19;6.32;;;3.85;;
72785;SDS011;60902;53.876;10.674;2022-09-30T00:03:30;6.07;;;3.60;;
72785;SDS011;60902;53.876;10.674;2022-09-30T00:03:41;5.93;;;3.60;;
72785;SDS011;60902;53.876;10.674;2022-09-30T00:03:53;5.70;;;3.60;;
72785;SDS011;60902;53.876;10.674;2022-09-30T00:04:06;5.93;;;3.85;;
72785;SDS011;60902;53.876;10.674;2022-09-30T00:04:20;6.10;;;4.00;;
72785;SDS011;60902;53.876;10.674;2022-09-30T00:04:33;6.43;;;3.75;;
72785;SDS011;60902;53.876;10.674;2022-09-30T00:04:44;6.50;;;3.58;;
72785;SDS011;60902;53.876;10.674;2022-09-30T00:04:55;6.53;;;3.60;;
72785;SDS011;60902;53.876;10.674;2022-09-30T00:05:06;6.32;;;3.70;;
72785;SDS011;60902;53.876;10.674;2022-09-30T00:05:17;5.97;;;3.45;;
72785;SDS011;60902;53.876;10.674;2022-09-30T00:05:27;6.03;;;3.42;;
72785;SDS011;60902;53.876;10.674;2022-09-30T00:05:38;6.05;;;3.58;;
72785;SDS011;60902;53.876;10.674;2022-09-30T00:05:54;6.25;;;3.80;;
72785;SDS011;60902;53.876;10.674;2022-09-30T00:06:07;6.93;;;3.97;;
72785;SDS011;60902;53.876;10.674;2022-09-30T00:06:18;6.90;;;4.07;;
72785;SDS011;60902;53.876;10.674;2022-09-30T00:06:29;6.50;;;3.80;;
72785;SDS011;60902;53.876;10.674;2022-09-30T00:06:41;5.78;;;3.63;;
72785;SDS011;60902;53.876;10.674;2022-09-30T00:06:52;6.32;;;3.50;;
72785;SDS011;60902;53.876;10.674;2022-09-30T00:07:03;6.88;;;3.70;;
72785;SDS011;60902;53.876;10.674;2022-09-30T00:07:14;6.70;;;3.75;;
72785;SDS011;60902;53.876;10.674;2022-09-30T00:07:26;6.50;;;3.83;;
72785;SDS011;60902;53.876;10.674;2022-09-30T00:07:37;6.03;;;3.70;;
72785;SDS011;60902;53.876;10.674;2022-09-30T00:07:48;5.68;;;3.50;;
72785;SDS011;60902;53.876;10.674;2022-09-30T00:07:59;5.75;;;3.38;;
72785;SDS011;60902;53.876;10.674;2022-09-30T00:08:10;6.03;;;3.63;;
72785;SDS011;60902;53.876;10.674;2022-09-30T00:08:21;6.10;;;3.83;;
72785;SDS011;60902;53.876;10.674;2022-09-30T00:08:32;6.18;;;4.03;;
72785;SDS011;60902;53.876;10.674;2022-09-30T00:08:43;6.43;;;4.03;;
72785;SDS011;60902;53.876;10.674;2022-09-30T00:08:54;6.57;;;4.15;;
72785;SDS011;60902;53.876;10.674;2022-09-30T00:09:05;6.60;;;4.00;;
72785;SDS011;60902;53.876;10.674;2022-09-30T00:09:17;6.20;;;3.63;;
72785;SDS011;60902;53.876;10.674;2022-09-30T00:09:30;6.20;;;3.40;;
72785;SDS011;60902;53.876;10.674;2022-09-30T00:09:41;6.57;;;3.70;;
72785;SDS011;60902;53.876;10.674;2022-09-30T00:09:52;6.53;;;3.65;;
72785;SDS011;60902;53.876;10.674;2022-09-30T00:10:03;6.35;;;3.80;;
72785;SDS011;60902;53.876;10.674;2022-09-30T00:10:16;6.43;;;3.63;;
72785;SDS011;60902;53.876;10.674;2022-09-30T00:10:27;7.10;;;3.80;;
72785;SDS011;60902;53.876;10.674;2022-09-30T00:10:38;7.07;;;3.83;;
72785;SDS011;60902;53.876;10.674;2022-09-30T00:10:57;6.93;;;3.97;;
72785;SDS011;60902;53.876;10.674;2022-09-30T00:11:11;6.30;;;3.80;;
72785;SDS011;60902;53.876;10.674;2022-09-30T00:11:26;5.70;;;3.70;;
72785;SDS011;60902;53.876;10.674;2022-09-30T00:11:38;5.85;;;3.65;;
72785;SDS011;60902;53.876;10.674;2022-09-30T00:11:50;6.00;;;3.53;;
72785;SDS011;60902;53.876;10.674;2022-09-30T00:12:01;6.07;;;3.63;;
72785;SDS011;60902;53.876;10.674;2022-09-30T00:12:12;6.30;;;3.85;;
72785;SDS011;60902;53.876;10.674;2022-09-30T00:12:24;6.35;;;3.90;;
72785;SDS011;60902;53.876;10.674;2022-09-30T00:12:36;6.10;;;3.75;;
72785;SDS011;60902;53.876;10.674;2022-09-30T00:12:47;5.90;;;3.65;;
72785;SDS011;60902;53.876;10.674;2022-09-30T00:13:00;6.05;;;3.88;;
72785;SDS011;60902;53.876;10.674;2022-09-30T00:13:10;6.00;;;3.80;;
72785;SDS011;60902;53.876;10.674;2022-09-30T00:13:21;6.50;;;3.88;;
72785;SDS011;60902;53.876;10.674;2022-09-30T00:13:33;6.10;;;3.60;;
72785;SDS011;60902;53.876;10.674;2022-09-30T00:13:46;6.05;;;3.60;;
72785;SDS011;60902;53.876;10.674;2022-09-30T00:13:59;5.93;;;3.75;;
72785;SDS011;60902;53.876;10.674;2022-09-30T00:14:12;5.93;;;3.72;;
72785;SDS011;60902;53.876;10.674;2022-09-30T00:14:26;6.03;;;3.58;;
72785;SDS011;60902;53.876;10.674;2022-09-30T00:14:37;6.25;;;3.53;;
72785;SDS011;60902;53.876;10.674;2022-09-30T00:14:48;6.00;;;3.50;;
72785;SDS011;60902;53.876;10.674;2022-09-30T00:14:59;6.03;;;3.50;;
72785;SDS011;60902;53.876;10.674;2022-09-30T00:15:10;6.03;;;3.45;;
72785;SDS011;60902;53.876;10.674;2022-09-30T00:15:22;5.90;;;3.65;;
72785;SDS011;60902;53.876;10.674;2022-09-30T00:15:33;5.97;;;3.83;;
72785;SDS011;60902;53.876;10.674;2022-09-30T00:15:46;6.05;;;3.90;;
72785;SDS011;60902;53.876;10.674;2022-09-30T00:15:57;5.85;;;3.63;;
72785;SDS011;60902;53.876;10.674;2022-09-30T00:16:09;5.70;;;3.60;;
72785;SDS011;60902;53.876;10.674;2022-09-30T00:16:21;5.80;;;3.60;;
72785;SDS011;60902;53.876;10.674;2022-09-30T00:16:35;6.13;;;3.60;;
72785;SDS011;60902;53.876;10.674;2022-09-30T00:16:46;6.65;;;3.65;;
72785;SDS011;60902;53.876;10.674;2022-09-30T00:16:58;6.57;;;3.80;;
72785;SDS011;60902;53.876;10.674;2022-09-30T00:17:09;6.45;;;3.67;;
72785;SDS011;60902;53.876;10.674;2022-09-30T00:17:20;5.75;;;3.50;;
72785;SDS011;60902;53.876;10.674;2022-09-30T00:17:31;5.93;;;3.50;;
72785;SDS011;60902;53.876;10.674;2022-09-30T00:17:41;6.47;;;3.85;;
72785;SDS011;60902;53.876;10.674;2022-09-30T00:17:52;6.57;;;3.83;;
72785;SDS011;60902;53.876;10.674;2022-09-30T00:18:04;6.15;;;3.75;;
72785;SDS011;60902;53.876;10.674;2022-09-30T00:18:15;6.27;;;3.80;;
72785;SDS011;60902;53.876;10.674;2022-09-30T00:18:26;6.20;;;3.90;;
72785;SDS011;60902;53.876;10.674;2022-09-30T00:18:38;6.05;;;3.70;;
72785;SDS011;60902;53.876;10.674;2022-09-30T00:18:50;6.32;;;3.60;;
72785;SDS011;60902;53.876;10.674;2022-09-30T00:19:04;6.47;;;3.63;;
72785;SDS011;60902;53.876;10.674;2022-09-30T00:19:15;6.80;;;3.85;;
72785;SDS011;60902;53.876;10.674;2022-09-30T00:19:27;6.57;;;3.83;;
72785;SDS011;60902;53.876;10.674;2022-09-30T00:19:38;6.57;;;4.07;;
72785;SDS011;60902;53.876;10.674;2022-09-30T00:19:49;6.32;;;4.00;;
72785;SDS011;60902;53.876;10.674;2022-09-30T00:20:00;6.50;;;4.07;;
72785;SDS011;60902;53.876;10.674;2022-09-30T00:20:11;6.43;;;3.95;;
72785;SDS011;60902;53.876;10.674;2022-09-30T00:20:23;6.03;;;3.80;;
72785;SDS011;60902;53.876;10.674;2022-09-30T00:20:34;6.20;;;3.80;;
72785;SDS011;60902;53.876;10.674;2022-09-30T00:20:45;6.43;;;3.60;;
72785;SDS011;60902;53.876;10.674;2022-09-30T00:20:57;6.03;;;3.28;;
72785;SDS011;60902;53.876;10.674;2022-09-30T00:21:09;5.88;;;3.30;;
72785;SDS011;60902;53.876;10.674;2022-09-30T00:21:21;5.55;;;3.47;;
72785;SDS011;60902;53.876;10.674;2022-09-30T00:21:32;5.85;;;3.70;;
72785;SDS011;60902;53.876;10.674;2022-09-30T00:21:43;5.93;;;3.80;;
72785;SDS011;60902;53.876;10.674;2022-09-30T00:21:54;6.30;;;3.80;;
72785;SDS011;60902;53.876;10.674;2022-09-30T00:22:06;6.43;;;3.90;;
72785;SDS011;60902;53.876;10.674;2022-09-30T00:22:17;6.53;;;3.80;;
72785;SDS011;60902;53.876;10.674;2022-09-30T00:22:28;6.35;;;3.72;;
72785;SDS011;60902;53.876;10.674;2022-09-30T00:22:39;5.80;;;3.40;;
72785;SDS011;60902;53.876;10.674;2022-09-30T00:22:50;5.78;;;3.55;;
72785;SDS011;60902;53.876;10.674;2022-09-30T00:23:01;6.03;;;3.53;;
72785;SDS011;60902;53.876;10.674;2022-09-30T00:23:12;6.32;;;3.72;;
72785;SDS011;60902;53.876;10.674;2022-09-30T00:23:23;6.18;;;3.65;;
72785;SDS011;60902;53.876;10.674;2022-09-30T00:23:34;6.45;;;3.80;;
72785;SDS011;60902;53.876;10.674;2022-09-30T00:23:47;6.45;;;3.78;;
72785;SDS011;60902;53.876;10.674;2022-09-30T00:23:59;6.10;;;3.70;;
72785;SDS011;60902;53.876;10.674;2022-09-30T00:24:10;5.95;;;3.55;;
72785;SDS011;60902;53.876;10.674;2022-09-30T00:24:21;6.20;;;3.60;;
72785;SDS011;60902;53.876;10.674;2022-09-30T00:24:32;6.15;;;3.67;;
72785;SDS011;60902;53.876;10.674;2022-09-30T00:24:43;6.30;;;3.55;;
72785;SDS011;60902;53.876;10.674;2022-09-30T00:24:55;6.57;;;3.72;;
72785;SDS011;60902;53.876;10.674;2022-09-30T00:25:06;6.15;;;3.55;;
72785;SDS011;60902;53.876;10.674;2022-09-30T00:25:17;6.00;;;3.42;;
72785;SDS011;60902;53.876;10.674;2022-09-30T00:25:28;5.97;;;3.50;;
72785;SDS011;60902;53.876;10.674;2022-09-30T00:25:39;6.22;;;3.47;;
72785;SDS011;60902;53.876;10.674;2022-09-30T00:25:50;6.28;;;3.42;;
72785;SDS011;60902;53.876;10.674;2022-09-30T00:26:07;6.20;;;3.25;;
72785;SDS011;60902;53.876;10.674;2022-09-30T00:26:22;6.20;;;3.42;;
72785;SDS011;60902;53.876;10.674;2022-09-30T00:26:33;6.35;;;3.58;;
72785;SDS011;60902;53.876;10.674;2022-09-30T00:26:45;6.10;;;3.38;;
72785;SDS011;60902;53.876;10.674;2022-09-30T00:26:55;6.10;;;3.43;;
72785;SDS011;60902;53.876;10.674;2022-09-30T00:27:06;6.00;;;3.50;;
72785;SDS011;60902;53.876;10.674;2022-09-30T00:27:17;5.95;;;3.75;;
72785;SDS011;60902;53.876;10.674;2022-09-30T00:27:30;6.25;;;3.80;;
72785;SDS011;60902;53.876;10.674;2022-09-30T00:27:42;6.22;;;3.70;;
72785;SDS011;60902;53.876;10.674;2022-09-30T00:27:53;5.82;;;3.60;;
72785;SDS011;60902;53.876;10.674;2022-09-30T00:28:04;5.70;;;3.60;;
72785;SDS011;60902;53.876;10.674;2022-09-30T00:28:17;6.10;;;3.80;;
72785;SDS011;60902;53.876;10.674;2022-09-30T00:28:28;6.10;;;3.80;;
72785;SDS011;60902;53.876;10.674;2022-09-30T00:28:39;5.95;;;3.67;;
72785;SDS011;60902;53.876;10.674;2022-09-30T00:28:51;5.68;;;3.50;;
72785;SDS011;60902;53.876;10.674;2022-09-30T00:29:03;6.07;;;3.60;;
72785;SDS011;60902;53.876;10.674;2022-09-30T00:29:15;5.90;;;3.63;;
72785;SDS011;60902;53.876;10.674;2022-09-30T00:29:26;6.45;;;3.75;;
72785;SDS011;60902;53.876;10.674;2022-09-30T00:29:37;6.60;;;4.00;;
72785;SDS011;60902;53.876;10.674;2022-09-30T00:29:48;6.40;;;3.80;;
72785;SDS011;60902;53.876;10.674;2022-09-30T00:30:00;6.70;;;3.72;;
72785;SDS011;60902;53.876;10.674;2022-09-30T00:30:10;6.90;;;3.60;;
72785;SDS011;60902;53.876;10.674;2022-09-30T00:30:21;6.85;;;3.70;;
72785;SDS011;60902;53.876;10.674;2022-09-30T00:30:32;6.10;;;3.53;;
72785;SDS011;60902;53.876;10.674;2022-09-30T00:30:44;6.03;;;3.67;;
72785;SDS011;60902;53.876;10.674;2022-09-30T00:30:57;5.82;;;3.55;;
72785;SDS011;60902;53.876;10.674;2022-09-30T00:31:10;5.50;;;3.50;;
72785;SDS011;60902;53.876;10.674;2022-09-30T00:31:23;5.63;;;3.53;;
72785;SDS011;60902;53.876;10.674;2022-09-30T00:31:35;5.90;;;3.88;;
72785;SDS011;60902;53.876;10.674;2022-09-30T00:31:46;5.95;;;3.92;;
72785;SDS011;60902;53.876;10.674;2022-09-30T00:31:56;5.82;;;3.60;;
72785;SDS011;60902;53.876;10.674;2022-09-30T00:32:08;5.65;;;3.38;;
72785;SDS011;60902;53.876;10.674;2022-09-30T00:32:19;5.75;;;3.33;;
72785;SDS011;60902;53.876;10.674;2022-09-30T00:32:30;6.05;;;3.42;;
72785;SDS011;60902;53.876;10.674;2022-09-30T00:32:41;6.45;;;3.58;;
72785;SDS011;60902;53.876;10.674;2022-09-30T00:32:52;6.20;;;3.63;;
72785;SDS011;60902;53.876;10.674;2022-09-30T00:33:03;6.43;;;3.90;;
72785;SDS011;60902;53.876;10.674;2022-09-30T00:33:14;6.20;;;3.87;;
72785;SDS011;60902;53.876;10.674;2022-09-30T00:33:25;6.22;;;3.90;;
72785;SDS011;60902;53.876;10.674;2022-09-30T00:33:36;6.95;;;3.80;;
72785;SDS011;60902;53.876;10.674;2022-09-30T00:33:48;7.15;;;3.90;;
72785;SDS011;60902;53.876;10.674;2022-09-30T00:34:15;6.30;;;3.83;;
72785;SDS011;60902;53.876;10.674;2022-09-30T00:34:28;5.95;;;3.70;;
72785;SDS011;60902;53.876;10.674;2022-09-30T00:34:39;6.05;;;3.67;;
72785;SDS011;60902;53.876;10.674;2022-09-30T00:34:50;6.40;;;3.90;;
72785;SDS011;60902;53.876;10.674;2022-09-30T00:35:02;6.97;;;4.13;;
72785;SDS011;60902;53.876;10.674;2022-09-30T00:35:14;6.85;;;4.30;;
72785;SDS011;60902;53.876;10.674;2022-09-30T00:35:25;6.82;;;4.20;;
72785;SDS011;60902;53.876;10.674;2022-09-30T00:35:36;6.63;;;3.97;;
72785;SDS011;60902;53.876;10.674;2022-09-30T00:35:47;6.43;;;3.65;;
72785;SDS011;60902;53.876;10.674;2022-09-30T00:35:58;6.47;;;3.60;;
72785;SDS011;60902;53.876;10.674;2022-09-30T00:36:09;6.50;;;3.67;;
72785;SDS011;60902;53.876;10.674;2022-09-30T00:36:20;6.40;;;3.60;;
72785;SDS011;60902;53.876;10.674;2022-09-30T00:36:31;6.57;;;3.78;;
72785;SDS011;60902;53.876;10.674;2022-09-30T00:36:43;6.15;;;3.65;;
72785;SDS011;60902;53.876;10.674;2022-09-30T00:36:57;5.57;;;3.58;;
72785;SDS011;60902;53.876;10.674;2022-09-30T00:37:11;5.70;;;3.60;;
72785;SDS011;60902;53.876;10.674;2022-09-30T00:37:24;5.82;;;3.58;;
72785;SDS011;60902;53.876;10.674;2022-09-30T00:37:35;5.70;;;3.50;;
72785;SDS011;60902;53.876;10.674;2022-09-30T00:37:45;5.82;;;3.60;;
72785;SDS011;60902;53.876;10.674;2022-09-30T00:37:57;6.00;;;3.70;;
72785;SDS011;60902;53.876;10.674;2022-09-30T00:38:09;5.85;;;3.80;;
72785;SDS011;60902;53.876;10.674;2022-09-30T00:38:20;5.82;;;3.70;;
72785;SDS011;60902;53.876;10.674;2022-09-30T00:38:30;5.88;;;3.63;;
72785;SDS011;60902;53.876;10.674;2022-09-30T00:38:42;5.93;;;3.60;;
72785;SDS011;60902;53.876;10.674;2022-09-30T00:38:53;5.80;;;3.53;;
72785;SDS011;60902;53.876;10.674;2022-09-30T00:39:05;6.13;;;3.47;;
72785;SDS011;60902;53.876;10.674;2022-09-30T00:39:18;6.32;;;3.78;;
72785;SDS011;60902;53.876;10.674;2022-09-30T00:39:30;6.80;;;3.90;;
72785;SDS011;60902;53.876;10.674;2022-09-30T00:39:41;6.15;;;3.67;;
72785;SDS011;60902;53.876;10.674;2022-09-30T00:39:52;6.07;;;3.75;;
72785;SDS011;60902;53.876;10.674;2022-09-30T00:40:04;5.95;;;3.53;;
72785;SDS011;60902;53.876;10.674;2022-09-30T00:40:18;5.85;;;3.22;;
72785;SDS011;60902;53.876;10.674;2022-09-30T00:40:29;5.95;;;3.22;;
72785;SDS011;60902;53.876;10.674;2022-09-30T00:40:41;5.88;;;3.33;;
72785;SDS011;60902;53.876;10.674;2022-09-30T00:40:52;6.05;;;3.72;;
72785;SDS011;60902;53.876;10.674;2022-09-30T00:41:03;5.72;;;3.55;;
72785;SDS011;60902;53.876;10.674;2022-09-30T00:41:14;5.60;;;3.42;;
72785;SDS011;60902;53.876;10.674;2022-09-30T00:41:25;5.90;;;3.40;;
72785;SDS011;60902;53.876;10.674;2022-09-30T00:41:36;5.95;;;3.50;;
72785;SDS011;60902;53.876;10.674;2022-09-30T00:41:49;6.35;;;3.78;;
72785;SDS011;60902;53.876;10.674;2022-09-30T00:42:02;6.22;;;3.75;;
72785;SDS011;60902;53.876;10.674;2022-09-30T00:42:16;6.38;;;3.53;;
72785;SDS011;60902;53.876;10.674;2022-09-30T00:42:28;6.75;;;3.80;;
72785;SDS011;60902;53.876;10.674;2022-09-30T00:42:39;6.43;;;4.05;;
72785;SDS011;60902;53.876;10.674;2022-09-30T00:42:50;5.95;;;3.88;;
72785;SDS011;60902;53.876;10.674;2022-09-30T00:43:02;5.72;;;3.42;;
72785;SDS011;60902;53.876;10.674;2022-09-30T00:43:15;5.95;;;3.25;;
72785;SDS011;60902;53.876;10.674;2022-09-30T00:43:38;5.90;;;3.40;;
72785;SDS011;60902;53.876;10.674;2022-09-30T00:43:51;5.97;;;3.70;;
72785;SDS011;60902;53.876;10.674;2022-09-30T00:44:51;6.00;;;3.70;;
72785;SDS011;60902;53.876;10.674;2022-09-30T00:45:04;6.15;;;3.63;;
72785;SDS011;60902;53.876;10.674;2022-09-30T00:45:19;5.95;;;3.72;;
72785;SDS011;60902;53.876;10.674;2022-09-30T00:45:30;6.00;;;3.90;;
72785;SDS011;60902;53.876;10.674;2022-09-30T00:45:43;5.95;;;4.05;;
72785;SDS011;60902;53.876;10.674;2022-09-30T00:46:03;6.25;;;3.90;;
72785;SDS011;60902;53.876;10.674;2022-09-30T00:46:16;6.20;;;3.85;;
72785;SDS011;60902;53.876;10.674;2022-09-30T00:46:31;6.30;;;3.92;;
72785;SDS011;60902;53.876;10.674;2022-09-30T00:46:46;6.30;;;3.65;;
72785;SDS011;60902;53.876;10.674;2022-09-30T00:46:57;6.22;;;3.60;;
72785;SDS011;60902;53.876;10.674;2022-09-30T00:47:10;6.43;;;3.78;;
72785;SDS011;60902;53.876;10.674;2022-09-30T00:48:00;6.05;;;3.80;;
72785;SDS011;60902;53.876;10.674;2022-09-30T00:48:18;5.78;;;3.45;;
72785;SDS011;60902;53.876;10.674;2022-09-30T00:48:34;5.95;;;3.42;;
72785;SDS011;60902;53.876;10.674;2022-09-30T00:48:48;6.38;;;3.60;;
72785;SDS011;60902;53.876;10.674;2022-09-30T00:49:04;6.57;;;3.80;;
72785;SDS011;60902;53.876;10.674;2022-09-30T00:49:17;6.28;;;3.90;;
72785;SDS011;60902;53.876;10.674;2022-09-30T00:49:31;5.88;;;3.75;;
72785;SDS011;60902;53.876;10.674;2022-09-30T00:49:42;6.10;;;3.90;;
72785;SDS011;60902;53.876;10.674;2022-09-30T00:49:54;6.20;;;3.90;;
72785;SDS011;60902;53.876;10.674;2022-09-30T00:50:46;5.80;;;3.60;;
72785;SDS011;60902;53.876;10.674;2022-09-30T00:51:04;5.80;;;3.38;;
72785;SDS011;60902;53.876;10.674;2022-09-30T00:51:16;5.80;;;3.25;;
72785;SDS011;60902;53.876;10.674;2022-09-30T00:51:28;5.50;;;3.22;;
72785;SDS011;60902;53.876;10.674;2022-09-30T00:51:47;6.50;;;3.80;;
72785;SDS011;60902;53.876;10.674;2022-09-30T00:52:00;6.65;;;3.70;;
72785;SDS011;60902;53.876;10.674;2022-09-30T00:52:11;6.40;;;3.60;;
72785;SDS011;60902;53.876;10.674;2022-09-30T00:52:23;6.10;;;3.70;;
72785;SDS011;60902;53.876;10.674;2022-09-30T00:52:34;6.00;;;3.55;;
72785;SDS011;60902;53.876;10.674;2022-09-30T00:52:49;5.78;;;3.33;;
72785;SDS011;60902;53.876;10.674;2022-09-30T00:53:07;5.80;;;3.45;;
72785;SDS011;60902;53.876;10.674;2022-09-30T00:53:21;5.95;;;3.50;;
72785;SDS011;60902;53.876;10.674;2022-09-30T00:53:41;6.20;;;3.70;;
72785;SDS011;60902;53.876;10.674;2022-09-30T00:53:58;5.85;;;3.50;;
72785;SDS011;60902;53.876;10.674;2022-09-30T00:54:12;5.93;;;3.63;;
72785;SDS011;60902;53.876;10.674;2022-09-30T00:54:28;6.85;;;3.78;;
72785;SDS011;60902;53.876;10.674;2022-09-30T00:54:40;6.65;;;3.65;;
72785;SDS011;60902;53.876;10.674;2022-09-30T00:54:51;5.80;;;3.42;;
72785;SDS011;60902;53.876;10.674;2022-09-30T00:55:05;6.05;;;3.50;;
72785;SDS011;60902;53.876;10.674;2022-09-30T00:55:28;5.68;;;3.25;;
72785;SDS011;60902;53.876;10.674;2022-09-30T00:55:47;5.68;;;3.55;;
72785;SDS011;60902;53.876;10.674;2022-09-30T00:56:03;6.72;;;4.07;;
72785;SDS011;60902;53.876;10.674;2022-09-30T00:56:20;6.45;;;3.75;;
72785;SDS011;60902;53.876;10.674;2022-09-30T00:56:35;6.13;;;3.80;;
72785;SDS011;60902;53.876;10.674;2022-09-30T00:56:49;6.00;;;3.70;;
72785;SDS011;60902;53.876;10.674;2022-09-30T00:57:04;5.70;;;3.55;;
72785;SDS011;60902;53.876;10.674;2022-09-30T00:57:17;5.90;;;3.70;;
72785;SDS011;60902;53.876;10.674;2022-09-30T00:57:28;5.80;;;3.60;;
72785;SDS011;60902;53.876;10.674;2022-09-30T00:57:40;5.93;;;3.40;;
72785;SDS011;60902;53.876;10.674;2022-09-30T00:57:50;5.90;;;3.45;;
72785;SDS011;60902;53.876;10.674;2022-09-30T00:58:03;6.35;;;3.72;;
72785;SDS011;60902;53.876;10.674;2022-09-30T00:58:17;6.18;;;3.63;;
72785;SDS011;60902;53.876;10.674;2022-09-30T00:58:32;6.25;;;3.50;;
72785;SDS011;60902;53.876;10.674;2022-09-30T00:58:49;6.25;;;3.80;;
72785;SDS011;60902;53.876;10.674;2022-09-30T00:59:04;6.25;;;3.80;;
72785;SDS011;60902;53.876;10.674;2022-09-30T00:59:18;6.10;;;3.60;;
72785;SDS011;60902;53.876;10.674;2022-09-30T00:59:33;6.32;;;3.65;;
72785;SDS011;60902;53.876;10.674;2022-09-30T00:59:47;6.30;;;3.63;;
72785;SDS011;60902;53.876;10.674;2022-09-30T01:00:01;5.72;;;3.50;;
72785;SDS011;60902;53.876;10.674;2022-09-30T01:00:13;5.47;;;3.47;;
72785;SDS011;60902;53.876;10.674;2022-09-30T01:00:24;5.88;;;3.67;;
72785;SDS011;60902;53.876;10.674;2022-09-30T01:00:36;5.80;;;3.50;;
72785;SDS011;60902;53.876;10.674;2022-09-30T01:00:48;5.78;;;3.72;;
72785;SDS011;60902;53.876;10.674;2022-09-30T01:01:01;6.55;;;4.13;;
72785;SDS011;60902;53.876;10.674;2022-09-30T01:01:12;6.72;;;4.30;;
72785;SDS011;60902;53.876;10.674;2022-09-30T01:01:24;6.43;;;4.22;;
72785;SDS011;60902;53.876;10.674;2022-09-30T01:01:35;6.20;;;3.95;;
72785;SDS011;60902;53.876;10.674;2022-09-30T01:01:50;6.03;;;3.63;;
72785;SDS011;60902;53.876;10.674;2022-09-30T01:02:02;6.00;;;3.53;;
72785;SDS011;60902;53.876;10.674;2022-09-30T01:02:14;6.00;;;3.60;;
72785;SDS011;60902;53.876;10.674;2022-09-30T01:02:25;6.13;;;3.70;;
72785;SDS011;60902;53.876;10.674;2022-09-30T01:02:36;6.57;;;3.78;;
72785;SDS011;60902;53.876;10.674;2022-09-30T01:02:47;6.53;;;3.70;;
72785;SDS011;60902;53.876;10.674;2022-09-30T01:02:59;6.38;;;3.63;;
72785;SDS011;60902;53.876;10.674;2022-09-30T01:03:11;5.72;;;3.50;;
72785;SDS011;60902;53.876;10.674;2022-09-30T01:03:23;5.70;;;3.50;;
72785;SDS011;60902;53.876;10.674;2022-09-30T01:03:35;5.83;;;3.53;;
72785;SDS011;60902;53.876;10.674;2022-09-30T01:03:50;5.57;;;3.40;;
72785;SDS011;60902;53.876;10.674;2022-09-30T01:04:09;5.60;;;3.50;;
72785;SDS011;60902;53.876;10.674;2022-09-30T01:04:22;5.70;;;3.40;;
72785;SDS011;60902;53.876;10.674;2022-09-30T01:04:35;5.60;;;3.42;;
72785;SDS011;60902;53.876;10.674;2022-09-30T01:04:47;5.65;;;3.67;;
72785;SDS011;60902;53.876;10.674;2022-09-30T01:04:58;6.40;;;3.90;;
72785;SDS011;60902;53.876;10.674;2022-09-30T01:05:11;6.53;;;3.70;;
72785;SDS011;60902;53.876;10.674;2022-09-30T01:05:23;6.25;;;3.65;;
72785;SDS011;60902;53.876;10.674;2022-09-30T01:05:35;5.95;;;3.65;;
72785;SDS011;60902;53.876;10.674;2022-09-30T01:05:46;6.07;;;3.60;;
72785;SDS011;60902;53.876;10.674;2022-09-30T01:05:58;5.97;;;3.45;;
72785;SDS011;60902;53.876;10.674;2022-09-30T01:06:09;6.15;;;3.65;;
72785;SDS011;60902;53.876;10.674;2022-09-30T01:06:21;6.15;;;3.72;;
72785;SDS011;60902;53.876;10.674;2022-09-30T01:06:34;6.30;;;3.75;;
72785;SDS011;60902;53.876;10.674;2022-09-30T01:06:45;5.90;;;3.42;;
72785;SDS011;60902;53.876;10.674;2022-09-30T01:06:58;5.72;;;3.45;;
72785;SDS011;60902;53.876;10.674;2022-09-30T01:07:10;5.75;;;3.60;;
72785;SDS011;60902;53.876;10.674;2022-09-30T01:07:24;5.85;;;3.50;;
72785;SDS011;60902;53.876;10.674;2022-09-30T01:07:35;6.20;;;3.70;;
72785;SDS011;60902;53.876;10.674;2022-09-30T01:07:46;6.00;;;3.63;;
72785;SDS011;60902;53.876;10.674;2022-09-30T01:07:59;6.72;;;3.60;;
72785;SDS011;60902;53.876;10.674;2022-09-30T01:08:12;6.68;;;3.50;;
72785;SDS011;60902;53.876;10.674;2022-09-30T01:08:23;6.45;;;3.67;;
72785;SDS011;60902;53.876;10.674;2022-09-30T01:08:37;6.60;;;4.10;;
72785;SDS011;60902;53.876;10.674;2022-09-30T01:08:49;6.20;;;4.10;;
72785;SDS011;60902;53.876;10.674;2022-09-30T01:09:00;5.70;;;3.70;;
72785;SDS011;60902;53.876;10.674;2022-09-30T01:09:13;5.55;;;3.50;;
72785;SDS011;60902;53.876;10.674;2022-09-30T01:09:23;6.00;;;3.70;;
72785;SDS011;60902;53.876;10.674;2022-09-30T01:09:36;6.35;;;3.90;;
72785;SDS011;60902;53.876;10.674;2022-09-30T01:09:49;6.40;;;4.13;;
72785;SDS011;60902;53.876;10.674;2022-09-30T01:10:01;6.60;;;4.10;;
72785;SDS011;60902;53.876;10.674;2022-09-30T01:10:12;6.00;;;3.63;;
72785;SDS011;60902;53.876;10.674;2022-09-30T01:10:23;5.82;;;3.50;;
72785;SDS011;60902;53.876;10.674;2022-09-30T01:10:35;5.55;;;3.42;;
72785;SDS011;60902;53.876;10.674;2022-09-30T01:10:47;5.90;;;3.45;;
72785;SDS011;60902;53.876;10.674;2022-09-30T01:10:58;5.93;;;3.65;;
72785;SDS011;60902;53.876;10.674;2022-09-30T01:11:09;5.75;;;3.72;;
72785;SDS011;60902;53.876;10.674;2022-09-30T01:11:20;5.70;;;3.70;;
72785;SDS011;60902;53.876;10.674;2022-09-30T01:11:31;5.85;;;3.67;;
72785;SDS011;60902;53.876;10.674;2022-09-30T01:11:42;5.78;;;3.60;;
72785;SDS011;60902;53.876;10.674;2022-09-30T01:11:54;6.60;;;3.58;;
72785;SDS011;60902;53.876;10.674;2022-09-30T01:12:07;6.63;;;3.53;;
72785;SDS011;60902;53.876;10.674;2022-09-30T01:12:21;6.53;;;3.50;;
72785;SDS011;60902;53.876;10.674;2022-09-30T01:12:34;6.18;;;3.63;;
72785;SDS011;60902;53.876;10.674;2022-09-30T01:12:45;6.40;;;3.70;;
72785;SDS011;60902;53.876;10.674;2022-09-30T01:12:56;6.60;;;3.90;;
72785;SDS011;60902;53.876;10.674;2022-09-30T01:13:08;6.22;;;3.75;;
72785;SDS011;60902;53.876;10.674;2022-09-30T01:13:18;6.03;;;3.60;;
72785;SDS011;60902;53.876;10.674;2022-09-30T01:13:33;6.00;;;3.72;;
72785;SDS011;60902;53.876;10.674;2022-09-30T01:13:46;5.80;;;3.83;;
72785;SDS011;60902;53.876;10.674;2022-09-30T01:14:00;6.00;;;3.95;;
72785;SDS011;60902;53.876;10.674;2022-09-30T01:14:15;5.93;;;3.83;;
72785;SDS011;60902;53.876;10.674;2022-09-30T01:14:29;5.85;;;3.80;;
72785;SDS011;60902;53.876;10.674;2022-09-30T01:14:40;5.85;;;3.70;;
72785;SDS011;60902;53.876;10.674;2022-09-30T01:14:54;5.75;;;3.63;;